Time;durP1;ratioP1;P1;durP2;ratioP2;P2;SDS_P1;SDS_P2;PMS_P1;PMS_P2;Temp;Humidity;BMP_temperature;BMP_pressure;BME280_temperature;BME280_humidity;BME280_pressure;Samples;Min_cycle;Max_cycle;Signal;HPM_P1;HPM_P2
2022/06/22 00:06:01;;;;;;;25.98;13.25;;;16.50;99.90;;;;;;20975931;28;20434;-57
2022/06/22 00:16:17;;;;;;;18.88;12.63;;;16.60;99.90;;;;;;20974759;28;20122;-57
2022/06/22 00:26:27;;;;;;;18.40;13.25;;;16.40;99.90;;;;;;20974339;28;20036;-57
2022/06/22 00:36:38;;;;;;;17.77;12.37;;;16.20;99.90;;;;;;20973790;28;20041;-57
2022/06/22 00:46:57;;;;;;;30.10;15.70;;;15.90;99.90;;;;;;20972439;28;20074;-56
2022/06/22 00:57:00;;;;;;;22.38;14.85;;;15.80;99.90;;;;;;21009788;28;20036;-51
2022/06/22 01:07:18;;;;;;;25.10;17.08;;;15.90;99.90;;;;;;21054663;28;20524;-50
2022/06/22 01:17:38;;;;;;;29.35;16.92;;;16.10;99.90;;;;;;21053636;28;20040;-56
2022/06/22 01:27:43;;;;;;;25.23;16.58;;;16.10;99.90;;;;;;21053121;28;20172;-55
2022/06/22 01:37:46;;;;;;;22.55;13.60;;;16.10;99.90;;;;;;21052452;28;20032;-57
2022/06/22 01:47:59;;;;;;;23.05;13.85;;;15.90;99.90;;;;;;21051787;28;20367;-56
2022/06/22 01:58:14;;;;;;;26.17;15.02;;;15.70;99.90;;;;;;21003878;28;20036;-57
2022/06/22 02:08:36;;;;;;;21.08;13.88;;;15.40;99.90;;;;;;20965982;28;20556;-49
2022/06/22 02:18:50;;;;;;;16.60;11.48;;;15.30;99.90;;;;;;20966114;28;20052;-52
2022/06/22 02:28:55;;;;;;;17.13;10.30;;;15.20;99.90;;;;;;20966131;28;20040;-56
2022/06/22 02:39:02;;;;;;;16.98;10.02;;;15.10;99.90;;;;;;20965183;28;20036;-57
2022/06/22 02:49:24;;;;;;;20.27;11.02;;;15.00;99.90;;;;;;20964788;28;20406;-57
2022/06/22 02:59:26;;;;;;;14.88;8.82;;;15.10;99.90;;;;;;21023455;28;20032;-57
2022/06/22 03:09:29;;;;;;;12.27;8.05;;;15.50;99.90;;;;;;21047559;28;20032;-57
2022/06/22 03:19:41;;;;;;;14.32;7.28;;;15.80;99.90;;;;;;21048892;28;20113;-57
2022/06/22 03:29:50;;;;;;;13.93;8.02;;;15.90;99.90;;;;;;21062423;28;20048;-51
2022/06/22 03:39:58;;;;;;;11.55;7.47;;;15.80;99.90;;;;;;21061856;28;20498;-57
2022/06/22 03:50:26;;;;;;;13.45;8.25;;;15.90;99.90;;;;;;21061231;28;20032;-57
2022/06/22 04:00:29;;;;;;;11.75;8.90;;;15.90;99.90;;;;;;20993372;28;20564;-57
2022/06/22 04:11:03;;;;;;;11.25;7.68;;;16.00;99.90;;;;;;20975372;28;20036;-57
2022/06/22 04:21:09;;;;;;;15.38;8.55;;;16.00;99.90;;;;;;20901390;28;20162;-57
2022/06/22 04:31:21;;;;;;;10.93;8.50;;;16.20;99.90;;;;;;20908425;28;20475;-58
2022/06/22 04:41:29;;;;;;;14.57;9.30;;;16.50;99.90;;;;;;20907437;28;20049;-57
2022/06/22 04:51:37;;;;;;;15.00;8.18;;;16.60;99.90;;;;;;20907696;28;20033;-58
2022/06/22 05:01:45;;;;;;;14.00;7.32;;;17.20;99.90;;;;;;20982100;28;20078;-58
2022/06/22 05:11:48;;;;;;;13.27;9.67;;;17.90;99.90;;;;;;20987510;28;20029;-58
2022/06/22 05:21:51;;;;;;;13.77;9.63;;;18.30;99.90;;;;;;20986824;28;20052;-58
2022/06/22 05:32:02;;;;;;;11.30;8.00;;;18.40;99.90;;;;;;20986109;28;20048;-50
2022/06/22 05:42:05;;;;;;;11.68;9.10;;;18.40;99.90;;;;;;20985144;28;20041;-57
2022/06/22 05:52:46;;;;;;;11.85;7.57;;;18.80;99.90;;;;;;20985762;28;20471;-59
2022/06/22 06:02:59;;;;;;;13.77;8.20;;;19.20;99.90;;;;;;20898694;28;20480;-53
2022/06/22 06:13:14;;;;;;;8.27;4.75;;;20.30;99.90;;;;;;20904593;28;20048;-54
2022/06/22 06:23:35;;;;;;;10.38;6.20;;;21.20;99.90;;;;;;20966269;28;20085;-58
2022/06/22 06:33:39;;;;;;;10.15;6.22;;;21.20;99.90;;;;;;20965378;28;20032;-59
2022/06/22 06:43:49;;;;;;;14.45;6.53;;;21.50;99.90;;;;;;20964917;28;20032;-58
2022/06/22 06:54:06;;;;;;;10.57;6.63;;;22.20;99.90;;;;;;20979295;28;20032;-58
2022/06/22 07:04:32;;;;;;;9.85;6.85;;;21.60;99.90;;;;;;21064834;28;20036;-59
2022/06/22 07:14:41;;;;;;;8.50;6.85;;;21.10;99.90;;;;;;21063891;28;20196;-59
2022/06/22 07:24:48;;;;;;;9.48;7.03;;;21.60;99.90;;;;;;21062910;28;20463;-54
2022/06/22 07:35:01;;;;;;;9.10;6.50;;;22.00;99.90;;;;;;21062251;28;20486;-59
2022/06/22 07:45:05;;;;;;;12.48;6.97;;;22.10;99.90;;;;;;21061562;28;20105;-59
2022/06/22 07:55:19;;;;;;;10.32;7.00;;;22.10;99.90;;;;;;21037988;28;20051;-56
2022/06/22 08:05:26;;;;;;;14.60;7.30;;;21.70;99.90;;;;;;20975043;28;20036;-59
2022/06/22 08:15:34;;;;;;;11.50;8.68;;;21.30;99.90;;;;;;20975265;28;20098;-58
2022/06/22 08:25:41;;;;;;;21.53;8.50;;;20.40;99.90;;;;;;20974690;28;20414;-57
2022/06/22 08:35:51;;;;;;;15.52;9.73;;;18.60;99.90;;;;;;20974018;28;20036;-56
2022/06/22 08:46:03;;;;;;;18.45;4.72;;;17.90;99.90;;;;;;20973354;28;20044;-58
2022/06/22 08:56:17;;;;;;;17.60;7.82;;;17.30;99.90;;;;;;21002516;28;20032;-57
2022/06/22 09:06:38;;;;;;;13.77;7.55;;;17.30;99.90;;;;;;21056342;28;20081;-58
2022/06/22 09:17:05;;;;;;;13.20;4.55;;;17.70;99.90;;;;;;21052173;28;20044;-58
2022/06/22 09:27:33;;;;;;;14.85;4.60;;;18.40;99.90;;;;;;21051888;28;20055;-58
2022/06/22 09:38:10;;;;;;;10.60;3.15;;;18.90;99.90;;;;;;21035774;28;20074;-58
2022/06/22 09:48:38;;;;;;;12.10;3.10;;;19.30;99.90;;;;;;21051861;28;20043;-58
2022/06/22 09:58:43;;;;;;;16.60;3.28;;;20.10;99.90;;;;;;20998466;28;20098;-59
2022/06/22 10:08:51;;;;;;;10.65;3.60;;;21.70;99.90;;;;;;20966622;28;20423;-59
2022/06/22 10:19:15;;;;;;;8.27;4.82;;;22.80;99.90;;;;;;20965841;28;20613;-59
2022/06/22 10:29:39;;;;;;;10.93;3.95;;;23.40;99.90;;;;;;20965298;28;20036;-59
2022/06/22 10:45:08;;;;;;;11.35;5.85;;;23.60;99.90;;;;;;20965303;28;20045;-59
2022/06/22 10:50:48;;;;;;;9.82;6.95;;;23.00;99.90;;;;;;20966549;28;20040;-58
2022/06/22 11:01:28;;;;;;;10.18;6.72;;;22.30;99.90;;;;;;21035139;28;20102;-60
2022/06/22 11:11:31;;;;;;;11.15;6.13;;;22.70;99.90;;;;;;21048185;28;20093;-61
2022/06/22 11:22:07;;;;;;;12.50;5.97;;;24.60;99.90;;;;;;21047481;28;20584;-59
2022/06/22 11:32:27;;;;;;;10.57;6.20;;;25.20;99.90;;;;;;21046926;28;20436;-56
2022/06/22 11:43:03;;;;;;;16.20;7.50;;;24.80;99.90;;;;;;21053105;28;20036;-62
2022/06/22 11:53:48;;;;;;;16.08;9.20;;;25.10;99.90;;;;;;20803583;28;20038;-61
2022/06/22 12:03:59;;;;;;;14.40;7.85;;;26.80;99.90;;;;;;20560106;28;20105;-61
2022/06/22 12:25:00;;;;;;;9.70;6.97;;;27.20;99.90;;;;;;20602720;28;20116;-61
2022/06/22 12:35:16;;;;;;;24.23;7.78;;;27.50;99.90;;;;;;20750065;28;20336;-63
2022/06/22 12:45:34;;;;;;;12.27;7.67;;;26.90;99.90;;;;;;20973615;28;20040;-62
2022/06/22 12:55:47;;;;;;;14.57;9.55;;;27.10;99.90;;;;;;20999153;28;20032;-63
2022/06/22 13:05:52;;;;;;;16.05;7.50;;;27.60;99.90;;;;;;21056226;28;20085;-62
2022/06/22 13:15:57;;;;;;;12.50;8.50;;;27.00;99.60;;;;;;21054522;28;20073;-61
2022/06/22 13:26:19;;;;;;;17.45;10.23;;;25.80;99.90;;;;;;21054169;28;20394;-61
2022/06/22 13:36:33;;;;;;;15.43;9.55;;;24.40;99.90;;;;;;21021650;28;20093;-60
2022/06/22 13:46:39;;;;;;;13.77;9.43;;;23.00;99.90;;;;;;21052288;28;20081;-54
2022/06/22 13:57:03;;;;;;;16.83;10.77;;;22.40;99.90;;;;;;21015749;28;20097;-60
2022/06/22 14:07:25;;;;;;;17.90;10.90;;;22.70;99.90;;;;;;20966271;28;20041;-60
2022/06/22 14:17:39;;;;;;;17.63;10.68;;;22.60;99.90;;;;;;20966242;28;20561;-60
2022/06/22 14:28:03;;;;;;;16.48;12.32;;;22.40;99.90;;;;;;20967187;28;20028;-60
2022/06/22 14:38:20;;;;;;;24.10;12.77;;;22.20;99.90;;;;;;20965475;28;20499;-61
2022/06/22 14:48:49;;;;;;;17.13;11.02;;;22.30;99.90;;;;;;20965510;28;20033;-61
2022/06/22 14:59:23;;;;;;;15.98;10.00;;;23.00;99.90;;;;;;21018203;28;20078;-59
2022/06/22 15:09:49;;;;;;;17.45;9.90;;;22.60;99.90;;;;;;21047555;28;20040;-61
2022/06/22 15:20:04;;;;;;;20.85;9.43;;;22.70;99.90;;;;;;20800947;28;20045;-61
2022/06/22 15:30:13;;;;;;;15.40;10.23;;;23.40;99.90;;;;;;20805414;28;20123;-60
2022/06/22 15:40:33;;;;;;;14.55;10.95;;;22.90;99.90;;;;;;20804732;28;20053;-60
2022/06/22 15:51:04;;;;;;;16.10;11.70;;;21.90;99.90;;;;;;20868825;28;20453;-59
2022/06/22 16:01:19;;;;;;;18.50;11.50;;;21.00;99.90;;;;;;20985705;28;20052;-59
2022/06/22 16:22:07;;;;;;;22.98;14.13;;;20.40;99.90;;;;;;20975274;28;20381;-59
2022/06/22 16:32:37;;;;;;;24.38;13.40;;;20.80;99.90;;;;;;20973406;28;20376;-52
2022/06/22 16:42:45;;;;;;;17.60;12.70;;;20.80;99.90;;;;;;20973881;28;20044;-59
2022/06/22 16:52:49;;;;;;;19.38;12.85;;;20.20;99.90;;;;;;20975631;28;20543;-59
2022/06/22 17:03:10;;;;;;;18.15;13.63;;;20.10;99.90;;;;;;21055911;28;20036;-59
2022/06/22 17:13:31;;;;;;;17.95;12.90;;;19.70;99.90;;;;;;21054434;28;20040;-53
2022/06/22 17:24:09;;;;;;;22.30;13.52;;;19.30;99.90;;;;;;21054387;28;20043;-59
2022/06/22 17:34:25;;;;;;;22.17;14.55;;;18.90;99.90;;;;;;21052598;28;20420;-58
2022/06/22 17:44:40;;;;;;;22.52;14.27;;;18.60;99.90;;;;;;21051343;28;20083;-60
2022/06/22 17:55:05;;;;;;;14.98;7.35;;;18.50;99.90;;;;;;21032611;28;20051;-54
2022/06/22 18:05:46;;;;;;;10.60;5.55;;;18.40;99.90;;;;;;20966904;28;20062;-59
2022/06/22 18:15:50;;;;;;;9.35;5.30;;;18.00;99.90;;;;;;20966611;28;20049;-59
2022/06/22 18:26:21;;;;;;;14.00;8.10;;;17.70;99.90;;;;;;20966125;28;20032;-59
2022/06/22 18:37:10;;;;;;;11.48;7.68;;;17.50;99.90;;;;;;20965738;28;20450;-59
2022/06/22 18:47:56;;;;;;;16.52;9.55;;;17.40;99.90;;;;;;20709708;28;20112;-59
2022/06/22 18:58:17;;;;;;;16.38;9.70;;;17.10;99.90;;;;;;20564286;28;20043;-59
2022/06/22 19:08:31;;;;;;;14.68;6.80;;;16.60;99.90;;;;;;20563540;28;20130;-58
2022/06/22 19:19:09;;;;;;;11.82;6.50;;;16.20;99.90;;;;;;20695414;28;20084;-51
2022/06/22 19:29:40;;;;;;;13.50;6.10;;;16.30;99.90;;;;;;20637673;28;20610;-59
2022/06/22 19:40:13;;;;;;;13.90;6.88;;;16.20;99.90;;;;;;20640783;28;20058;-58
2022/06/22 19:50:44;;;;;;;14.60;7.32;;;15.90;99.90;;;;;;20641707;28;20106;-52
2022/06/22 20:00:53;;;;;;;10.77;5.43;;;15.60;99.90;;;;;;20750660;28;20040;-58
2022/06/22 20:11:10;;;;;;;21.43;8.10;;;15.90;99.90;;;;;;20737093;28;20038;-58
2022/06/22 20:21:15;;;;;;;;;;;16.20;99.90;;;;;;20720679;28;20065;-58
2022/06/22 20:31:40;;;;;;;13.52;6.60;;;16.00;99.90;;;;;;20735331;28;19913;-55
2022/06/22 20:41:57;;;;;;;10.40;6.78;;;15.70;99.90;;;;;;20718415;28;20042;-53
2022/06/22 20:52:08;;;;;;;16.02;6.90;;;15.40;99.90;;;;;;20870604;28;20098;-57
2022/06/22 21:02:29;;;;;;;15.75;4.75;;;15.30;99.90;;;;;;21053259;28;20036;-51
2022/06/22 21:12:33;;;;;;;12.02;3.97;;;15.60;99.90;;;;;;21054090;28;20040;-58
2022/06/22 21:22:39;;;;;;;11.95;4.50;;;15.30;99.90;;;;;;21054636;28;20064;-57
2022/06/22 21:32:42;;;;;;;10.80;4.80;;;15.00;99.90;;;;;;21054003;28;20044;-57
2022/06/22 21:43:12;;;;;;;19.52;8.40;;;14.90;99.90;;;;;;21052559;28;20487;-57
2022/06/22 21:53:24;;;;;;;15.18;7.88;;;16.10;99.90;;;;;;21051336;28;20105;-58
2022/06/22 22:03:45;;;;;;;10.88;5.05;;;;;;;;;;21051226;28;20040;-58
2022/06/22 22:13:51;;;;;;;9.45;4.40;;;17.20;99.90;;;;;;21050580;28;20448;-54
2022/06/22 22:24:03;;;;;;;10.70;4.82;;;16.40;99.90;;;;;;21049935;28;20031;-57
2022/06/22 22:34:19;;;;;;;15.40;7.18;;;15.40;99.90;;;;;;21049380;28;20035;-57
2022/06/22 22:44:25;;;;;;;10.63;5.97;;;14.90;99.90;;;;;;21048913;28;20058;-53
2022/06/22 22:54:45;;;;;;;11.55;4.03;;;14.70;99.90;;;;;;21031781;28;20033;-59
2022/06/22 23:04:48;;;;;;;9.70;4.60;;;14.50;99.90;;;;;;20964839;28;20047;-53
2022/06/22 23:14:50;;;;;;;9.88;5.40;;;14.40;99.90;;;;;;20964518;28;20061;-56
2022/06/22 23:25:00;;;;;;;14.52;6.60;;;14.30;99.90;;;;;;20964114;28;20044;-56
2022/06/22 23:35:14;;;;;;;15.57;6.53;;;14.10;99.90;;;;;;20964995;28;20040;-57
2022/06/22 23:45:19;;;;;;;10.85;5.32;;;14.00;99.90;;;;;;20978178;28;20066;-55
2022/06/22 23:55:27;;;;;;;8.98;4.20;;;14.00;99.90;;;;;;20985657;28;20028;-56
